Antonino, KS

1:40 PM CST on November 28, 2014 (GMT -0600)
Rural Ellis Co. | Change Station
CLOSE
Current Station
Personal Weather Station
Location: Hays, KS
Elevation: 2077 ft
Nearby Weather Stations

Elev 2077 ft 38.81 °N, 99.37 °W | Updated 1 minute ago

Clear
Clear
72.0 °F
Feels Like 76 °F
N
9.4
Wind Variable Wind from SW

Today
High -- | Low -- °F
--% Chance of Precip.
Yesterday
High -- | Low -- °F
Precip. -- in
7:34 AM 5:16 PM
Waxing Crescent, 43% visible
Pressure 29.79 in
Visibility 10.0 miles
Clouds Clear
Heat Index 76 °F
Dew Point 34 °F
Humidity 25%
Rainfall 0.00 in
Snow Depth Not available.
UV 3 out of 12
Pollen .10 out of 12
Air Quality Not available.
Flu Activity Not available.
METAR KHYS 281935Z AUTO 21013G17KT 10SM CLR 22/M02 A2979 RMK AO1

More Conditions Fewer Conditions

Pressure 29.79 in
Visibility 10.0 miles
Clouds Clear
Heat Index 76 °F
Dew Point 34 °F
Humidity 25%
Rainfall 0.00 in
Snow Depth Not available.
UV 3 out of 12
Pollen .10 out of 12
Air Quality Not available.
Flu Activity Not available.
METAR KHYS 281935Z AUTO 21013G17KT 10SM CLR 22/M02 A2979 RMK AO1

More Conditions Fewer Conditions

10-Day Weather Forecast

Almanac

Astronomy

Nov. 28, 2014 Rise Set
Actual Time
Civil Twilight
Nautical Twilight
Astronomical Twilight
Moon
Length of Visible Light
Length of Day
Tomorrow will be .
, % of the Moon is Illuminated

Today's Extremes

State Highs State Lows

Community

WunderPhotos

Upload Photos

1,774,271 photos uploaded!

WunderBlogs® & News

Nearby

Air Quality

  Air Quality AQ Index Pollutant
Not available.

Snow Depth

Station Depth Elevation

Earthquake Activity

City Distance Mag. Time & Date
Minimum magnitude displayed is 2.5.

Coastal Water Temperatures

Place Temperature

Nearby Weather Stations